Partner VA

AirMAK management has the honor to welcome you to our first Macedonian Virtual Airline! Our main vision is to simulate real Macedonian air traffic in a new, refreshed look, along with passionate and determinied sim-pilots and ATC. Creation of this national carrier highlightes a major task of our team to develop and spread out our Virtual Aviation on the VATSIM network world-wide. With some of the original destinations which MAT Airways once flew, and new ones added everyday, this VA outstands the potential of becoming the largest VA that will offer you wealth of flights in Europe and around the World. Together with our active pilot community and professional staff you will call AirMAK your home instantly as you get in!

Website

------------------------------------------------------------------------------------------------------------

Wizz Air Virtual Airlines is based on the real-world Wizz Air which was established in 2004. The most important aim of Wizz Air Virtual Airlines is providing the most realistic virtual air service in Central and Eastern European region.

Website

------------------------------------------------------------------------------------------------------------

B&H Airlines Virtual is an organization dedicated to Flight Simulation enthusiasts. With its base at Sarajevo International Airport, B&H Airlines Virtual is simulating the operations of the real life B&H Airlines, who is the flag carrier of Bosnia and Herzegovina.

Website

------------------------------------------------------------------------------------------------------------

Danubius VA is VA based in Bucuresti Henri Coanda ( Otopeni LROP ). They got the name after Danubius which is the Latin name of the Danube, the second largest river in Europe, a river full of history, which in its course passes through several european capitals, finaly spilling into the Black Sea.

Website

------------------------------------------------------------------------------------------------------------

How to Become our VA Partners

Latest weather information

[source: UHMR]
METAR
LWSK 161430Z 02013KT 9999 FEW040 BKN080 12/07 Q1005 NOSIG =
LWOH 161430Z 15006KT 9999 BKN033 10/06 Q1007 =
TAF
TAF LWSK 161430Z 1615/1715 02012KT 9999 FEW040 BKN080 TEMPO 1615/1709 RA BKN035 OVC050 =
TAF LWOH 161430Z 1615/1715 20008KT 9999 BKN040 TEMPO 1615/1708 RA OVC033 =

София Дървен материал цени

София Дъски цена